Time,TemperatureF,DewpointF,PressureIn,WindDirection,WindDirectionDegrees,WindSpeedMPH,WindSpeedGustMPH,Humidity,HourlyPrecipIn,Conditions,Clouds,dailyrainin,SolarRadiationWatts/m^2,SoftwareType,DateUTC
2013-08-01 00:12:00,54.0,50.0,-100.00,NW,324,8.0,11.0,85,0.00,,,0.00,0.000000,,2013-08-01 07:12:00,
2013-08-01 00:22:00,54.0,50.0,-100.00,NW,324,8.0,11.0,85,0.00,,,0.00,0.000000,,2013-08-01 07:22:00,
2013-08-01 00:32:00,54.0,50.0,-100.00,NW,324,8.0,11.0,85,0.00,,,0.00,0.000000,,2013-08-01 07:32:00,
2013-08-01 00:43:00,54.0,50.0,-100.00,NW,324,8.0,11.0,85,0.00,,,0.00,0.000000,,2013-08-01 07:43:00,
2013-08-01 00:50:00,54.0,50.0,-100.00,WNW,301,7.0,11.0,85,0.00,,,0.00,0.000000,,2013-08-01 07:50:00,
2013-08-01 01:22:00,54.0,50.0,-100.00,WNW,301,7.0,11.0,85,0.00,,,0.00,0.000000,,2013-08-01 08:22:00,
2013-08-01 01:35:00,54.0,50.0,-100.00,WNW,301,7.0,11.0,85,0.00,,,0.00,0.000000,,2013-08-01 08:35:00,
2013-08-01 01:43:00,54.0,50.0,-100.00,WNW,301,7.0,11.0,85,0.00,,,0.00,0.000000,,2013-08-01 08:43:00,
2013-08-01 01:50:00,54.0,50.0,-100.00,WNW,298,7.0,11.0,85,0.00,,,0.00,0.000000,,2013-08-01 08:50:00,
2013-08-01 02:50:00,54.0,50.0,-100.00,NW,305,6.0,11.0,86,0.00,,,-99.99,0.000000,,2013-08-01 09:50:00,
2013-08-01 03:24:00,54.0,50.0,-100.00,NW,305,6.0,11.0,86,0.00,,,-99.99,0.000000,,2013-08-01 10:24:00,
2013-08-01 03:50:00,54.0,50.0,-100.00,NW,320,5.0,9.0,86,0.00,,,0.00,0.000000,,2013-08-01 10:50:00,
2013-08-01 04:15:00,54.0,50.0,-100.00,NW,320,5.0,9.0,86,0.00,,,0.00,0.000000,,2013-08-01 11:15:00,
2013-08-01 04:45:00,54.0,50.0,-100.00,NW,320,5.0,9.0,86,0.00,,,0.00,0.000000,,2013-08-01 11:45:00,
2013-08-01 04:50:00,53.0,50.0,-100.00,NW,314,6.0,10.0,88,0.00,,,0.00,0.000000,,2013-08-01 11:50:00,
2013-08-01 05:16:00,53.0,50.0,-100.00,NW,314,6.0,10.0,88,0.00,,,0.00,0.000000,,2013-08-01 12:16:00,
2013-08-01 05:27:00,53.0,50.0,-100.00,NW,314,6.0,10.0,88,0.00,,,0.00,0.000000,,2013-08-01 12:27:00,
2013-08-01 05:35:00,53.0,50.0,-100.00,NW,314,6.0,10.0,88,0.00,,,0.00,0.000000,,2013-08-01 12:35:00,
2013-08-01 05:44:00,53.0,50.0,-100.00,NW,314,6.0,10.0,88,0.00,,,0.00,0.000000,,2013-08-01 12:44:00,
2013-08-01 06:36:00,53.0,50.0,-100.00,NNW,329,7.0,9.0,88,0.00,,,-99.99,0.000000,,2013-08-01 13:36:00,
2013-08-01 06:45:00,53.0,50.0,-100.00,NNW,329,7.0,9.0,88,0.00,,,-99.99,0.000000,,2013-08-01 13:45:00,
2013-08-01 10:37:00,62.0,51.0,-100.00,NW,314,9.0,16.0,66,-99.99,,,0.00,520.000000,,2013-08-01 17:37:00,
2013-08-01 10:50:00,65.0,51.0,-100.00,WNW,303,10.0,15.0,60,0.00,,,0.00,689.000000,,2013-08-01 17:50:00,
2013-08-01 11:35:00,65.0,51.0,-100.00,WNW,303,10.0,15.0,60,0.00,,,0.00,689.000000,,2013-08-01 18:35:00,
2013-08-01 11:46:00,65.0,51.0,-100.00,WNW,303,10.0,15.0,60,0.00,,,0.00,689.000000,,2013-08-01 18:46:00,
2013-08-01 11:50:00,68.0,50.0,-100.00,NNW,348,9.0,16.0,52,0.00,,,0.00,821.000000,,2013-08-01 18:50:00,
2013-08-01 12:26:00,68.0,50.0,-100.00,NNW,348,9.0,16.0,52,0.00,,,0.00,821.000000,,2013-08-01 19:26:00,
2013-08-01 12:35:00,68.0,50.0,-100.00,NNW,348,9.0,16.0,52,0.00,,,0.00,821.000000,,2013-08-01 19:35:00,
2013-08-01 12:46:00,68.0,50.0,-100.00,NNW,348,9.0,16.0,52,0.00,,,0.00,821.000000,,2013-08-01 19:46:00,
2013-08-01 13:24:00,74.0,51.0,-100.00,NW,305,11.0,17.0,45,0.00,,,0.00,811.000000,,2013-08-01 20:24:00,
2013-08-01 13:44:00,74.0,51.0,-100.00,NW,305,11.0,17.0,45,0.00,,,0.00,811.000000,,2013-08-01 20:44:00,
2013-08-01 13:50:00,74.0,49.0,-100.00,NW,318,15.0,21.0,42,0.00,,,0.00,932.000000,,2013-08-01 20:50:00,
2013-08-01 14:24:00,74.0,49.0,-100.00,NW,318,15.0,21.0,42,0.00,,,0.00,932.000000,,2013-08-01 21:24:00,
2013-08-01 14:34:00,74.0,49.0,-100.00,NW,318,15.0,21.0,42,0.00,,,0.00,932.000000,,2013-08-01 21:34:00,
2013-08-01 14:43:00,74.0,49.0,-100.00,NW,318,15.0,21.0,42,0.00,,,0.00,932.000000,,2013-08-01 21:43:00,
2013-08-01 14:50:00,74.0,50.0,-100.00,WNW,303,14.0,22.0,43,0.00,,,0.00,849.000000,,2013-08-01 21:50:00,
2013-08-01 15:22:00,74.0,50.0,-100.00,WNW,303,14.0,22.0,43,0.00,,,0.00,849.000000,,2013-08-01 22:22:00,
2013-08-01 15:34:00,74.0,50.0,-100.00,WNW,303,14.0,22.0,43,0.00,,,0.00,849.000000,,2013-08-01 22:34:00,
2013-08-01 15:50:00,74.0,47.0,-100.00,NW,306,16.0,23.0,39,0.00,,,0.00,204.000000,,2013-08-01 22:50:00,
2013-08-01 16:14:00,74.0,47.0,-100.00,NW,306,16.0,23.0,39,0.00,,,0.00,204.000000,,2013-08-01 23:14:00,
2013-08-01 16:32:00,74.0,47.0,-100.00,NW,306,16.0,23.0,39,0.00,,,0.00,204.000000,,2013-08-01 23:32:00,
2013-08-01 16:44:00,74.0,47.0,-100.00,NW,306,16.0,23.0,39,0.00,,,0.00,204.000000,,2013-08-01 23:44:00,
2013-08-01 16:50:00,74.0,49.0,-100.00,NW,304,14.0,23.0,41,0.00,,,-99.99,158.000000,,2013-08-01 23:50:00,
2013-08-01 17:15:00,74.0,49.0,-100.00,NW,304,14.0,23.0,41,0.00,,,-99.99,158.000000,,2013-08-02 00:15:00,
2013-08-01 17:24:00,74.0,49.0,-100.00,NW,304,14.0,23.0,41,0.00,,,-99.99,158.000000,,2013-08-02 00:24:00,
2013-08-01 17:34:00,74.0,49.0,-100.00,NW,304,14.0,23.0,41,0.00,,,-99.99,158.000000,,2013-08-02 00:34:00,
2013-08-01 18:24:00,72.0,49.0,-100.00,NW,310,15.0,25.0,44,0.00,,,0.00,132.000000,,2013-08-02 01:24:00,
2013-08-01 18:34:00,72.0,49.0,-100.00,NW,310,15.0,25.0,44,0.00,,,0.00,132.000000,,2013-08-02 01:34:00,
2013-08-01 18:43:00,72.0,49.0,-100.00,NW,310,15.0,25.0,44,0.00,,,0.00,132.000000,,2013-08-02 01:43:00,
2013-08-01 18:50:00,70.0,49.0,-100.00,WNW,290,15.0,21.0,48,0.00,,,0.00,120.000000,,2013-08-02 01:50:00,
2013-08-01 19:34:00,70.0,49.0,-100.00,WNW,290,15.0,21.0,48,0.00,,,0.00,120.000000,,2013-08-02 02:34:00,
2013-08-01 19:44:00,70.0,49.0,-100.00,WNW,290,15.0,21.0,48,0.00,,,0.00,120.000000,,2013-08-02 02:44:00,
2013-08-01 20:12:00,66.0,49.0,-100.00,WNW,293,10.0,20.0,54,0.00,,,0.00,99.000000,,2013-08-02 03:12:00,
2013-08-01 20:23:00,66.0,49.0,-100.00,WNW,293,10.0,20.0,54,0.00,,,0.00,99.000000,,2013-08-02 03:23:00,
2013-08-01 20:33:00,66.0,49.0,-100.00,WNW,293,10.0,20.0,54,0.00,,,0.00,99.000000,,2013-08-02 03:33:00,
2013-08-01 20:44:00,66.0,49.0,-100.00,WNW,293,10.0,20.0,54,0.00,,,0.00,99.000000,,2013-08-02 03:44:00,
2013-08-01 20:50:00,61.0,49.0,-100.00,NW,314,6.0,14.0,65,0.00,,,0.00,15.000000,,2013-08-02 03:50:00,
2013-08-01 21:12:00,61.0,49.0,-100.00,NW,314,6.0,14.0,65,0.00,,,0.00,15.000000,,2013-08-02 04:12:00,
2013-08-01 21:22:00,61.0,49.0,-100.00,NW,314,6.0,14.0,65,0.00,,,0.00,15.000000,,2013-08-02 04:22:00,
2013-08-01 21:33:00,61.0,49.0,-100.00,NW,314,6.0,14.0,65,0.00,,,0.00,15.000000,,2013-08-02 04:33:00,
2013-08-01 21:43:00,61.0,49.0,-100.00,NW,314,6.0,14.0,65,0.00,,,0.00,15.000000,,2013-08-02 04:43:00,
2013-08-01 21:50:00,58.0,49.0,-100.00,NNW,328,8.0,12.0,73,0.00,,,0.00,0.000000,,2013-08-02 04:50:00,
2013-08-01 22:12:00,58.0,49.0,-100.00,NNW,328,8.0,12.0,73,0.00,,,0.00,0.000000,,2013-08-02 05:12:00,
2013-08-01 22:22:00,58.0,49.0,-100.00,NNW,328,8.0,12.0,73,0.00,,,0.00,0.000000,,2013-08-02 05:22:00,
2013-08-01 22:32:00,58.0,49.0,-100.00,NNW,328,8.0,12.0,73,0.00,,,0.00,0.000000,,2013-08-02 05:32:00,
2013-08-01 22:43:00,58.0,49.0,-100.00,NNW,328,8.0,12.0,73,0.00,,,0.00,0.000000,,2013-08-02 05:43:00,
2013-08-01 22:50:00,55.0,49.0,-100.00,NNW,333,6.0,12.0,81,0.00,,,0.00,0.000000,,2013-08-02 05:50:00,
2013-08-01 23:22:00,55.0,49.0,-100.00,NNW,333,6.0,12.0,81,0.00,,,0.00,0.000000,,2013-08-02 06:22:00,
2013-08-01 23:33:00,55.0,49.0,-100.00,NNW,333,6.0,12.0,81,0.00,,,0.00,0.000000,,2013-08-02 06:33:00,
2013-08-01 23:43:00,55.0,49.0,-100.00,NNW,333,6.0,12.0,81,0.00,,,0.00,0.000000,,2013-08-02 06:43:00,
2013-08-01 23:50:00,54.0,50.0,-100.00,NNW,345,8.0,10.0,87,0.00,,,0.00,0.000000,,2013-08-02 06:50:00,